Time;durP1;ratioP1;P1;durP2;ratioP2;P2;SDS_P1;SDS_P2;PMS_P1;PMS_P2;Temp;Humidity;BMP_temperature;BMP_pressure;BME280_temperature;BME280_humidity;BME280_pressure;Samples;Min_cycle;Max_cycle;Signal;HPM_P1;HPM_P2
2023/05/26 00:00:26;;;;;;;31.00;5.32;;;10.10;99.90;;;;;;5016078;28;20461;-65
2023/05/26 00:02:51;;;;;;;32.90;5.05;;;10.00;99.90;;;;;;5014868;28;20099;-65
2023/05/26 00:05:20;;;;;;;32.97;5.28;;;10.00;99.90;;;;;;5030898;28;20391;-65
2023/05/26 00:07:47;;;;;;;29.88;5.20;;;10.00;99.90;;;;;;5015042;28;20052;-65
2023/05/26 00:10:13;;;;;;;31.33;5.32;;;10.00;99.90;;;;;;4998640;28;20045;-65
2023/05/26 00:12:40;;;;;;;36.30;5.10;;;10.00;99.90;;;;;;4998630;28;20041;-65
2023/05/26 00:15:06;;;;;;;38.60;5.70;;;10.00;99.90;;;;;;5046952;28;20060;-65
2023/05/26 00:17:32;;;;;;;32.67;5.18;;;10.00;99.90;;;;;;5030266;28;20044;-65
2023/05/26 00:20:00;;;;;;;42.75;5.60;;;10.00;99.90;;;;;;5016908;28;20046;-65
2023/05/26 00:22:26;;;;;;;34.20;5.75;;;10.00;99.90;;;;;;5013461;28;20068;-65
2023/05/26 00:24:52;;;;;;;32.10;5.05;;;9.90;99.90;;;;;;5013545;28;20427;-66
2023/05/26 00:27:18;;;;;;;31.35;5.00;;;10.00;99.90;;;;;;5014570;28;20214;-65
2023/05/26 00:29:44;;;;;;;35.60;4.53;;;10.00;99.90;;;;;;5013908;28;20666;-65
2023/05/26 00:32:10;;;;;;;30.15;4.63;;;10.00;99.90;;;;;;4998630;28;20036;-65
2023/05/26 00:34:36;;;;;;;33.50;5.38;;;10.00;99.90;;;;;;5016844;28;20037;-65
2023/05/26 00:37:02;;;;;;;28.15;4.55;;;10.00;99.90;;;;;;5013374;28;20381;-65
2023/05/26 00:39:29;;;;;;;36.97;5.82;;;10.00;99.90;;;;;;5012648;28;20262;-65
2023/05/26 00:41:55;;;;;;;32.08;4.78;;;10.00;99.90;;;;;;5013425;28;20603;-65
2023/05/26 00:44:22;;;;;;;30.20;5.28;;;9.90;99.90;;;;;;5013103;28;20437;-65
2023/05/26 00:46:48;;;;;;;26.83;4.53;;;10.00;99.90;;;;;;5014176;28;21824;-65
2023/05/26 00:49:13;;;;;;;33.00;5.13;;;10.00;99.90;;;;;;4997015;28;20049;-65
2023/05/26 00:51:40;;;;;;;29.25;4.78;;;10.00;99.90;;;;;;5015813;28;20064;-65
2023/05/26 00:54:07;;;;;;;29.13;4.68;;;10.00;99.90;;;;;;5045536;28;20049;-64
2023/05/26 00:56:35;;;;;;;27.88;4.50;;;10.00;99.90;;;;;;5012547;28;20045;-65
2023/05/26 00:59:02;;;;;;;29.20;4.75;;;10.00;99.90;;;;;;5011482;28;20045;-65
2023/05/26 01:01:29;;;;;;;38.78;5.80;;;10.00;99.90;;;;;;5014993;28;20534;-66
2023/05/26 01:03:55;;;;;;;35.03;5.68;;;10.00;99.90;;;;;;4998460;28;20089;-65
2023/05/26 01:06:22;;;;;;;32.60;4.93;;;10.00;99.90;;;;;;5045619;28;20099;-65
2023/05/26 01:08:48;;;;;;;35.30;5.53;;;10.00;99.90;;;;;;5044790;28;20140;-66
2023/05/26 01:11:22;;;;;;;33.40;5.18;;;9.90;99.90;;;;;;5011804;28;20071;-64
2023/05/26 01:14:11;;;;;;;27.17;4.97;;;9.90;99.90;;;;;;5017093;28;20045;-65
2023/05/26 01:16:46;;;;;;;26.88;4.78;;;9.90;99.90;;;;;;5013075;28;20046;-65
2023/05/26 01:20:00;;;;;;;34.50;5.07;;;9.90;99.90;;;;;;5014877;28;20535;-65
2023/05/26 01:22:50;;;;;;;36.25;5.28;;;9.90;99.90;;;;;;4978517;28;20045;-65
2023/05/26 01:25:39;;;;;;;30.77;4.47;;;10.00;99.90;;;;;;5011764;28;20057;-65
2023/05/26 01:28:15;;;;;;;31.38;5.15;;;10.00;99.90;;;;;;5012086;28;20566;-66
2023/05/26 01:30:42;;;;;;;34.60;4.03;;;9.90;99.90;;;;;;5046013;28;20215;-65
2023/05/26 01:33:08;;;;;;;35.17;5.55;;;9.90;99.90;;;;;;5031507;28;20033;-65
2023/05/26 01:35:34;;;;;;;33.42;5.63;;;10.00;99.90;;;;;;5011529;28;20048;-65
2023/05/26 01:38:00;;;;;;;28.15;4.80;;;10.00;99.90;;;;;;5014546;28;20176;-65
2023/05/26 01:40:27;;;;;;;33.38;4.82;;;10.00;99.90;;;;;;5045254;28;20041;-65
2023/05/26 01:42:58;;;;;;;32.20;4.78;;;10.00;99.90;;;;;;5043112;28;20041;-65
2023/05/26 01:45:26;;;;;;;35.55;5.60;;;10.00;99.90;;;;;;5011418;28;20049;-66
2023/05/26 01:47:59;;;;;;;24.58;4.43;;;10.00;99.90;;;;;;4995893;28;20056;-66
2023/05/26 01:50:32;;;;;;;;;;;10.00;99.90;;;;;;4997722;28;20398;-66
2023/05/26 01:53:04;;;;;;;32.42;4.55;;;10.00;99.90;;;;;;5012714;28;19932;-65
2023/05/26 01:55:31;;;;;;;31.08;4.70;;;10.00;99.90;;;;;;4996611;28;20205;-65
2023/05/26 01:57:57;;;;;;;31.02;4.90;;;10.00;99.90;;;;;;5014211;28;20571;-65
2023/05/26 02:00:24;;;;;;;25.20;4.50;;;10.10;99.90;;;;;;4995698;28;20045;-66
2023/05/26 02:02:51;;;;;;;28.80;4.63;;;10.10;99.90;;;;;;5011909;28;20041;-65
2023/05/26 02:05:17;;;;;;;27.33;4.15;;;10.00;99.90;;;;;;4977082;28;21272;-65
2023/05/26 02:07:44;;;;;;;29.52;4.20;;;10.00;99.90;;;;;;4993159;28;20049;-65
2023/05/26 02:10:10;;;;;;;31.48;5.43;;;10.00;99.90;;;;;;5009155;28;20087;-65
2023/05/26 02:12:36;;;;;;;30.88;5.35;;;10.00;99.90;;;;;;4993253;28;20037;-65
2023/05/26 02:15:02;;;;;;;25.77;4.20;;;10.00;99.90;;;;;;4992902;28;20273;-66
2023/05/26 02:17:28;;;;;;;33.25;4.38;;;10.00;99.90;;;;;;4995015;28;20466;-65
2023/05/26 02:19:54;;;;;;;26.40;3.97;;;10.00;99.90;;;;;;5010481;28;20133;-66
2023/05/26 02:22:20;;;;;;;36.45;4.43;;;10.00;99.90;;;;;;4994096;28;20042;-65
2023/05/26 02:24:45;;;;;;;31.80;5.20;;;10.00;99.90;;;;;;4992330;28;20049;-65
2023/05/26 02:27:11;;;;;;;31.17;4.32;;;9.90;99.90;;;;;;4993338;28;20044;-66
2023/05/26 02:29:37;;;;;;;32.67;5.85;;;9.90;99.90;;;;;;4992618;28;20499;-66
2023/05/26 02:32:03;;;;;;;27.52;5.35;;;9.90;99.90;;;;;;4992773;28;20049;-65
2023/05/26 02:34:28;;;;;;;31.70;5.35;;;9.90;99.90;;;;;;4992139;28;20104;-65
2023/05/26 02:36:55;;;;;;;30.13;4.93;;;9.90;99.90;;;;;;5005126;28;20124;-66
2023/05/26 02:39:23;;;;;;;31.73;4.93;;;9.90;99.90;;;;;;5010993;28;20174;-65
2023/05/26 02:41:49;;;;;;;33.00;4.90;;;9.90;99.90;;;;;;4995652;28;20204;-65
2023/05/26 02:44:15;;;;;;;32.88;4.75;;;9.90;99.90;;;;;;5028173;28;20037;-65
2023/05/26 02:46:41;;;;;;;35.78;4.78;;;9.90;99.90;;;;;;5044373;28;20095;-66
2023/05/26 02:49:06;;;;;;;24.55;4.72;;;9.90;99.90;;;;;;4996974;28;20048;-65
2023/05/26 02:51:34;;;;;;;31.33;4.90;;;10.00;99.90;;;;;;5010511;28;20037;-66
2023/05/26 02:53:59;;;;;;;31.27;4.38;;;9.90;99.90;;;;;;4998507;28;20037;-65
2023/05/26 02:56:25;;;;;;;26.17;4.55;;;9.90;99.90;;;;;;4998135;28;20111;-66
2023/05/26 02:58:51;;;;;;;32.03;5.55;;;9.90;99.90;;;;;;5017087;28;20048;-65
2023/05/26 03:01:17;;;;;;;30.25;5.18;;;9.90;99.90;;;;;;5014277;28;20037;-64
2023/05/26 03:03:42;;;;;;;31.65;5.25;;;9.90;99.90;;;;;;4999538;28;20055;-65
2023/05/26 03:06:10;;;;;;;25.38;4.43;;;9.90;99.90;;;;;;5048309;28;20423;-65
2023/05/26 03:08:37;;;;;;;30.17;4.60;;;9.90;99.90;;;;;;5016623;28;20193;-65
2023/05/26 03:11:04;;;;;;;31.23;4.57;;;9.90;99.90;;;;;;5014134;28;20033;-65
2023/05/26 03:13:29;;;;;;;32.83;4.50;;;9.90;99.90;;;;;;5048110;28;20103;-66
2023/05/26 03:15:55;;;;;;;26.17;4.03;;;9.90;99.90;;;;;;4997151;28;20040;-66
2023/05/26 03:18:21;;;;;;;32.35;4.47;;;10.00;99.90;;;;;;5016013;28;20036;-64
2023/05/26 03:20:46;;;;;;;29.00;3.90;;;9.90;99.90;;;;;;5014956;28;20570;-65
2023/05/26 03:23:17;;;;;;;30.42;5.25;;;9.90;99.90;;;;;;5032967;28;20045;-65
2023/05/26 03:25:42;;;;;;;31.60;5.43;;;9.90;99.90;;;;;;5015029;28;20069;-65
2023/05/26 03:28:08;;;;;;;34.33;4.85;;;9.80;99.90;;;;;;5015417;28;20543;-66
2023/05/26 03:30:34;;;;;;;27.23;4.50;;;9.80;99.90;;;;;;5031275;28;20041;-64
2023/05/26 03:33:01;;;;;;;34.20;5.07;;;9.80;99.90;;;;;;5015406;28;20034;-65
2023/05/26 03:35:26;;;;;;;35.75;5.00;;;9.90;99.90;;;;;;5015772;28;20049;-65
2023/05/26 03:37:52;;;;;;;32.17;4.82;;;9.90;99.90;;;;;;5014950;28;20431;-65
2023/05/26 03:40:18;;;;;;;33.90;5.75;;;9.90;99.90;;;;;;5014855;28;20080;-65
2023/05/26 03:42:44;;;;;;;32.80;5.38;;;9.90;99.90;;;;;;5014219;28;20087;-64
2023/05/26 03:45:12;;;;;;;30.95;4.93;;;9.90;99.90;;;;;;5016239;28;20049;-65
2023/05/26 03:47:38;;;;;;;25.67;4.60;;;9.90;99.90;;;;;;5048381;28;20054;-65
2023/05/26 03:50:04;;;;;;;35.05;5.22;;;9.90;99.90;;;;;;5015975;28;20076;-64
2023/05/26 03:52:29;;;;;;;34.03;4.35;;;9.90;99.90;;;;;;4997641;28;20201;-65
2023/05/26 03:54:55;;;;;;;33.70;4.90;;;9.90;99.90;;;;;;4997811;28;20122;-64
2023/05/26 03:57:21;;;;;;;36.25;4.95;;;9.90;99.90;;;;;;5013455;28;20072;-65
2023/05/26 03:59:46;;;;;;;32.83;5.32;;;9.90;99.90;;;;;;5016223;28;20741;-65
2023/05/26 04:02:12;;;;;;;36.05;5.25;;;10.00;99.90;;;;;;5016464;28;20546;-65
2023/05/26 04:04:38;;;;;;;30.48;4.70;;;10.00;99.90;;;;;;5015539;28;20052;-65
2023/05/26 04:07:04;;;;;;;27.67;4.75;;;10.00;99.90;;;;;;4998266;28;20041;-65
2023/05/26 04:09:31;;;;;;;24.90;4.03;;;10.00;99.90;;;;;;4993499;28;20561;-65
2023/05/26 04:11:57;;;;;;;32.50;4.20;;;10.10;99.90;;;;;;5048178;28;20072;-65
2023/05/26 04:14:22;;;;;;;25.15;3.67;;;10.00;99.90;;;;;;5030771;28;20357;-65
2023/05/26 04:16:48;;;;;;;35.10;5.53;;;10.20;99.90;;;;;;5013909;28;20292;-65
2023/05/26 04:19:14;;;;;;;29.02;4.47;;;10.10;99.90;;;;;;5046845;28;20045;-64
2023/05/26 04:21:39;;;;;;;27.48;4.40;;;10.10;99.90;;;;;;5015793;28;20034;-64
2023/05/26 04:24:06;;;;;;;31.00;4.57;;;10.10;99.90;;;;;;5030692;28;20439;-64
2023/05/26 04:26:34;;;;;;;37.70;6.75;;;10.20;99.90;;;;;;5015354;28;20041;-65
2023/05/26 04:29:03;;;;;;;25.63;4.68;;;10.20;99.90;;;;;;4992866;28;20664;-65
2023/05/26 04:31:29;;;;;;;28.77;4.75;;;10.30;99.90;;;;;;4998320;28;20229;-65
2023/05/26 04:33:56;;;;;;;30.42;4.45;;;10.30;99.90;;;;;;4997073;28;20198;-64
2023/05/26 04:36:23;;;;;;;31.27;5.28;;;10.30;99.90;;;;;;5030993;28;20411;-65
2023/05/26 04:38:49;;;;;;;28.58;4.90;;;10.40;99.90;;;;;;5030575;28;20052;-64
2023/05/26 04:41:16;;;;;;;28.92;4.45;;;10.50;99.90;;;;;;5002277;28;20049;-66
2023/05/26 04:43:43;;;;;;;24.88;3.95;;;10.50;99.90;;;;;;5030228;28;20145;-65
2023/05/26 04:46:10;;;;;;;25.77;4.40;;;10.50;99.90;;;;;;4997035;28;21145;-65
2023/05/26 04:48:39;;;;;;;30.67;4.82;;;10.60;99.90;;;;;;5016336;28;20047;-65
2023/05/26 04:51:07;;;;;;;24.83;4.65;;;10.70;99.90;;;;;;5014013;28;20053;-66
2023/05/26 04:53:33;;;;;;;28.05;4.60;;;10.80;99.90;;;;;;5047858;28;20291;-67
2023/05/26 04:56:00;;;;;;;24.98;4.05;;;10.90;99.90;;;;;;5011338;28;20041;-66
2023/05/26 04:58:26;;;;;;;30.02;4.22;;;10.90;99.90;;;;;;4997394;28;20665;-66
2023/05/26 05:00:53;;;;;;;25.80;3.80;;;10.90;99.90;;;;;;4998834;28;20558;-66
2023/05/26 05:03:20;;;;;;;27.98;4.18;;;10.90;99.90;;;;;;5015860;28;20342;-66
2023/05/26 05:05:47;;;;;;;28.13;4.13;;;10.90;99.90;;;;;;5013510;28;20080;-65
2023/05/26 05:08:12;;;;;;;30.83;4.13;;;11.00;99.90;;;;;;5015163;28;20048;-66
2023/05/26 05:10:38;;;;;;;23.60;3.80;;;11.00;99.90;;;;;;5015447;28;20299;-66
2023/05/26 05:13:04;;;;;;;27.85;4.88;;;10.90;99.90;;;;;;5013884;28;20045;-65
2023/05/26 05:15:29;;;;;;;27.63;3.95;;;11.00;99.90;;;;;;5012140;28;20563;-66
2023/05/26 05:17:56;;;;;;;28.23;5.22;;;11.00;99.90;;;;;;5014444;28;20157;-67
2023/05/26 05:20:21;;;;;;;25.80;4.57;;;11.10;99.90;;;;;;5046409;28;20037;-66
2023/05/26 05:22:47;;;;;;;19.55;3.30;;;11.10;99.90;;;;;;4996684;28;20380;-66
2023/05/26 05:25:12;;;;;;;30.88;4.53;;;11.20;99.90;;;;;;5011428;28;20411;-66
2023/05/26 05:27:38;;;;;;;24.13;3.63;;;11.30;99.90;;;;;;5029055;28;20714;-65
2023/05/26 05:30:05;;;;;;;27.42;4.00;;;11.50;99.90;;;;;;5013622;28;20289;-66
2023/05/26 05:32:31;;;;;;;27.50;4.50;;;11.60;99.90;;;;;;5012844;28;20506;-65
2023/05/26 05:34:57;;;;;;;26.20;4.20;;;11.80;99.90;;;;;;5045776;28;20108;-65
2023/05/26 05:37:23;;;;;;;16.13;3.05;;;12.00;99.90;;;;;;5011280;28;20100;-64
2023/05/26 05:39:48;;;;;;;25.85;4.20;;;12.10;72.90;;;;;;5046540;28;20045;-65
2023/05/26 05:42:14;;;;;;;29.70;4.38;;;12.20;36.60;;;;;;5012280;28;20238;-65
2023/05/26 05:44:40;;;;;;;20.05;3.85;;;12.50;31.10;;;;;;5012428;28;20336;-65
2023/05/26 05:47:06;;;;;;;26.10;3.90;;;12.50;21.80;;;;;;5014089;28;20060;-66
2023/05/26 05:49:31;;;;;;;22.95;3.40;;;12.70;5.40;;;;;;5032288;28;20053;-66
2023/05/26 05:51:57;;;;;;;20.30;3.42;;;12.90;1.00;;;;;;5030665;28;20192;-65
2023/05/26 05:54:23;;;;;;;21.33;3.47;;;12.80;1.00;;;;;;5045203;28;20041;-64
2023/05/26 05:56:48;;;;;;;26.75;4.28;;;12.80;1.00;;;;;;5011876;28;20294;-66
2023/05/26 05:59:14;;;;;;;22.30;3.50;;;12.90;1.00;;;;;;5028054;28;20360;-66
2023/05/26 06:01:40;;;;;;;22.55;3.67;;;13.00;1.00;;;;;;5013694;28;20041;-64
2023/05/26 06:04:05;;;;;;;23.70;4.13;;;12.80;99.90;;;;;;5044289;28;20345;-65
2023/05/26 06:06:31;;;;;;;17.73;2.58;;;12.80;1.00;;;;;;5029439;28;20083;-65
2023/05/26 06:08:57;;;;;;;21.85;3.45;;;12.80;99.90;;;;;;5011889;28;20418;-65
2023/05/26 06:11:23;;;;;;;22.40;3.55;;;12.80;99.90;;;;;;5044176;28;20515;-65
2023/05/26 06:13:48;;;;;;;18.63;3.00;;;12.80;1.00;;;;;;5012581;28;20049;-65
2023/05/26 06:16:14;;;;;;;20.83;3.42;;;12.80;99.90;;;;;;4997189;28;20064;-65
2023/05/26 06:18:40;;;;;;;18.63;3.15;;;13.00;99.90;;;;;;4996426;28;20739;-64
2023/05/26 06:21:05;;;;;;;15.32;2.70;;;13.00;99.90;;;;;;5013163;28;20746;-65
2023/05/26 06:23:31;;;;;;;18.63;3.20;;;13.00;99.90;;;;;;4995051;28;20048;-65
2023/05/26 06:25:57;;;;;;;28.42;3.60;;;12.90;99.90;;;;;;5028752;28;20037;-64
2023/05/26 06:28:22;;;;;;;19.75;2.88;;;13.00;99.90;;;;;;5044575;28;20279;-64
2023/05/26 06:30:48;;;;;;;16.83;3.53;;;13.10;99.90;;;;;;5010364;28;20335;-64
2023/05/26 06:33:14;;;;;;;19.88;3.20;;;13.00;99.90;;;;;;5012282;28;20076;-65
2023/05/26 06:35:40;;;;;;;20.23;3.20;;;13.10;99.90;;;;;;5012623;28;20041;-64
2023/05/26 06:38:06;;;;;;;16.17;3.20;;;13.20;99.90;;;;;;5013189;28;20045;-65
2023/05/26 06:40:31;;;;;;;16.90;2.55;;;13.30;99.90;;;;;;5013826;28;20345;-65
2023/05/26 06:42:57;;;;;;;20.48;2.95;;;13.30;99.90;;;;;;5028621;28;20045;-66
2023/05/26 06:45:23;;;;;;;21.13;2.75;;;13.40;99.90;;;;;;5011195;28;20053;-66
2023/05/26 06:47:48;;;;;;;16.30;2.83;;;13.50;99.90;;;;;;5014902;28;20057;-66
2023/05/26 06:50:14;;;;;;;15.57;2.33;;;13.60;99.90;;;;;;5011855;28;20368;-64
2023/05/26 06:52:41;;;;;;;19.42;3.22;;;13.50;99.90;;;;;;5012215;28;20048;-64
2023/05/26 06:55:07;;;;;;;15.32;2.60;;;13.50;99.90;;;;;;4994354;28;20069;-65
2023/05/26 06:57:32;;;;;;;13.45;2.10;;;13.50;99.90;;;;;;5029999;28;20041;-65
2023/05/26 06:59:59;;;;;;;18.98;3.00;;;13.70;90.30;;;;;;5011615;28;20201;-65
2023/05/26 07:02:24;;;;;;;15.10;2.97;;;13.70;99.90;;;;;;5011029;28;20275;-65
2023/05/26 07:04:50;;;;;;;16.73;3.00;;;13.80;99.90;;;;;;5013257;28;20411;-65
2023/05/26 07:07:16;;;;;;;18.08;3.08;;;13.90;99.90;;;;;;5011960;28;20585;-65
2023/05/26 07:09:41;;;;;;;17.30;3.08;;;13.90;2.40;;;;;;5043350;28;20156;-65
2023/05/26 07:12:07;;;;;;;16.77;2.95;;;14.00;74.30;;;;;;5028405;28;20069;-65
2023/05/26 07:14:33;;;;;;;13.38;2.13;;;14.10;29.00;;;;;;5012419;28;20450;-65
2023/05/26 07:16:59;;;;;;;16.95;2.85;;;14.10;1.00;;;;;;5028129;28;20465;-65
2023/05/26 07:19:24;;;;;;;17.70;2.38;;;14.20;1.00;;;;;;5028167;28;20061;-64
2023/05/26 07:21:50;;;;;;;17.20;2.72;;;14.20;1.00;;;;;;5028532;28;20045;-65
2023/05/26 07:24:16;;;;;;;15.93;2.38;;;14.40;1.00;;;;;;5011184;28;20525;-65
2023/05/26 07:26:41;;;;;;;13.52;2.47;;;14.40;1.00;;;;;;5045054;28;20041;-65
2023/05/26 07:29:07;;;;;;;16.13;2.60;;;14.40;1.00;;;;;;5011878;28;20045;-68
2023/05/26 07:31:33;;;;;;;14.10;2.65;;;14.50;1.00;;;;;;5013853;28;20446;-66
2023/05/26 07:33:59;;;;;;;14.38;2.22;;;14.70;1.00;;;;;;5016949;28;20395;-65
2023/05/26 07:36:25;;;;;;;19.42;2.50;;;14.70;99.90;;;;;;4998775;28;20156;-66
2023/05/26 07:38:50;;;;;;;17.20;2.65;;;14.70;1.00;;;;;;5031540;28;20048;-66
2023/05/26 07:41:18;;;;;;;15.52;2.65;;;14.90;1.00;;;;;;4998340;28;21244;-66
2023/05/26 07:43:44;;;;;;;15.43;2.42;;;14.90;99.90;;;;;;5012950;28;20056;-66
2023/05/26 07:46:09;;;;;;;16.50;2.40;;;14.90;99.90;;;;;;4996501;28;20053;-66
2023/05/26 07:48:35;;;;;;;14.45;2.65;;;15.10;1.00;;;;;;5048349;28;20040;-67
2023/05/26 07:51:01;;;;;;;11.43;1.70;;;15.30;1.00;;;;;;5016739;28;20321;-66
2023/05/26 07:53:26;;;;;;;14.85;2.38;;;15.20;99.90;;;;;;5033775;28;20487;-66
2023/05/26 07:55:52;;;;;;;23.70;3.20;;;15.10;99.90;;;;;;5013205;28;20060;-66
2023/05/26 07:58:18;;;;;;;14.68;2.50;;;15.30;99.90;;;;;;5046432;28;20538;-66
2023/05/26 08:00:43;;;;;;;16.92;2.53;;;15.40;99.90;;;;;;5000071;28;20052;-66
2023/05/26 08:03:09;;;;;;;13.38;2.50;;;15.60;99.90;;;;;;5000095;28;20097;-66
2023/05/26 08:05:35;;;;;;;14.70;2.33;;;15.50;99.90;;;;;;5000210;28;20049;-66
2023/05/26 08:08:01;;;;;;;16.50;2.60;;;15.50;99.90;;;;;;5014371;28;20063;-66
2023/05/26 08:10:26;;;;;;;15.35;2.17;;;15.60;99.90;;;;;;5014691;28;20309;-67
2023/05/26 08:12:52;;;;;;;16.48;2.60;;;15.70;99.90;;;;;;5048004;28;21135;-67
2023/05/26 08:15:21;;;;;;;12.27;2.35;;;15.70;99.90;;;;;;5014143;28;20041;-66
2023/05/26 08:17:48;;;;;;;15.52;2.78;;;15.80;99.90;;;;;;5015475;28;20045;-66
2023/05/26 08:20:14;;;;;;;15.25;2.80;;;15.90;99.90;;;;;;5016110;28;20033;-66
2023/05/26 08:22:40;;;;;;;14.30;2.60;;;16.10;99.90;;;;;;5016481;28;20477;-66
2023/05/26 08:25:06;;;;;;;16.92;2.72;;;16.00;99.90;;;;;;5012391;28;20053;-66
2023/05/26 08:27:31;;;;;;;13.20;3.10;;;16.00;99.90;;;;;;4998673;28;20076;-67
2023/05/26 08:29:57;;;;;;;12.27;2.38;;;16.20;99.90;;;;;;5012724;28;20034;-66
2023/05/26 08:32:23;;;;;;;14.77;2.13;;;16.30;99.90;;;;;;4999049;28;20158;-66
2023/05/26 08:34:49;;;;;;;16.70;2.47;;;16.20;99.90;;;;;;5030227;28;20077;-66
2023/05/26 08:37:16;;;;;;;17.00;3.03;;;16.40;99.90;;;;;;5016504;28;20467;-66
2023/05/26 08:39:42;;;;;;;17.25;2.80;;;16.40;99.90;;;;;;5014681;28;20606;-67
2023/05/26 08:42:15;;;;;;;14.85;2.85;;;16.50;99.90;;;;;;5018646;28;20063;-67
2023/05/26 08:44:43;;;;;;;15.30;2.75;;;16.50;99.90;;;;;;5031539;28;20052;-67
2023/05/26 08:47:11;;;;;;;12.02;2.20;;;16.60;99.90;;;;;;5015813;28;20064;-67
2023/05/26 08:49:41;;;;;;;15.15;2.70;;;16.60;99.90;;;;;;5017398;28;20037;-68
2023/05/26 08:52:13;;;;;;;14.57;2.38;;;16.60;99.90;;;;;;5000019;28;20060;-66
2023/05/26 08:54:40;;;;;;;13.25;2.90;;;16.90;99.90;;;;;;5047069;28;20044;-67
2023/05/26 08:57:06;;;;;;;13.13;2.20;;;16.70;99.90;;;;;;5049546;28;20068;-67
2023/05/26 08:59:32;;;;;;;10.93;2.10;;;16.80;99.90;;;;;;4999624;28;20108;-67
2023/05/26 09:01:59;;;;;;;14.15;2.67;;;17.00;99.90;;;;;;5030989;28;20574;-67
2023/05/26 09:04:25;;;;;;;15.55;2.33;;;16.90;99.90;;;;;;5001387;28;20045;-67
2023/05/26 09:06:51;;;;;;;10.50;2.38;;;17.00;99.90;;;;;;5034950;28;20072;-67
2023/05/26 09:09:18;;;;;;;15.23;2.55;;;17.40;99.90;;;;;;5031487;28;20241;-66
2023/05/26 09:11:46;;;;;;;12.68;2.17;;;17.40;99.90;;;;;;5034119;28;20162;-67
2023/05/26 09:14:16;;;;;;;13.18;2.38;;;17.30;99.90;;;;;;5014376;28;20041;-67
2023/05/26 09:16:43;;;;;;;12.25;2.25;;;17.40;99.90;;;;;;5035464;28;20041;-67
2023/05/26 09:19:18;;;;;;;16.30;2.88;;;17.40;99.90;;;;;;5013392;28;20053;-66
2023/05/26 09:21:54;;;;;;;10.80;2.33;;;17.80;99.90;;;;;;5005806;28;20096;-66
2023/05/26 09:24:26;;;;;;;13.18;2.42;;;17.80;99.90;;;;;;5014011;28;20045;-67
2023/05/26 09:26:52;;;;;;;11.05;2.30;;;17.80;99.90;;;;;;5045560;28;20488;-67
2023/05/26 09:29:17;;;;;;;13.48;2.70;;;17.90;99.90;;;;;;5011457;28;20510;-67
2023/05/26 09:31:48;;;;;;;11.88;2.50;;;17.90;99.90;;;;;;5012683;28;20033;-67
2023/05/26 09:34:15;;;;;;;14.23;2.85;;;17.70;99.90;;;;;;5029279;28;20045;-68
2023/05/26 09:36:41;;;;;;;12.68;2.40;;;17.70;99.90;;;;;;5027653;28;20053;-67
2023/05/26 09:39:12;;;;;;;15.77;2.83;;;17.70;99.90;;;;;;5011004;28;20079;-69
2023/05/26 09:41:40;;;;;;;12.55;2.70;;;17.40;99.90;;;;;;5006910;28;20049;-66
2023/05/26 09:44:18;;;;;;;15.43;2.88;;;17.70;99.90;;;;;;5011489;28;20383;-67
2023/05/26 09:46:45;;;;;;;12.20;2.58;;;17.60;99.90;;;;;;5033460;28;20057;-66
2023/05/26 09:49:17;;;;;;;14.27;2.58;;;17.50;99.90;;;;;;5047222;28;20096;-67
2023/05/26 09:51:48;;;;;;;14.05;2.53;;;17.50;99.90;;;;;;5025224;28;20900;-67
2023/05/26 09:54:15;;;;;;;15.40;2.65;;;18.00;99.90;;;;;;5019278;28;20170;-67
2023/05/26 09:56:49;;;;;;;14.75;2.28;;;18.30;99.90;;;;;;5029927;28;20048;-67
2023/05/26 09:59:16;;;;;;;14.88;3.40;;;18.30;99.90;;;;;;5016667;28;20267;-68
2023/05/26 10:01:43;;;;;;;14.65;4.03;;;18.20;99.90;;;;;;5014716;28;20383;-67
2023/05/26 10:04:10;;;;;;;13.20;3.10;;;18.50;99.90;;;;;;5007177;28;20037;-67
2023/05/26 10:06:36;;;;;;;15.93;3.15;;;18.80;99.90;;;;;;5059202;28;20160;-67
2023/05/26 10:09:04;;;;;;;15.73;3.30;;;18.60;99.90;;;;;;5026332;28;20467;-69
2023/05/26 10:11:33;;;;;;;11.15;2.88;;;18.80;99.90;;;;;;5025569;28;20072;-68
2023/05/26 10:14:00;;;;;;;13.40;2.58;;;19.00;99.90;;;;;;5027497;28;20056;-67
2023/05/26 10:16:26;;;;;;;15.10;2.85;;;18.80;99.90;;;;;;5058328;28;20519;-69
2023/05/26 10:18:52;;;;;;;14.77;2.83;;;18.90;99.90;;;;;;5059039;28;20037;-68
2023/05/26 10:21:23;;;;;;;16.20;3.25;;;18.60;99.90;;;;;;5011073;28;20391;-67
2023/05/26 10:24:08;;;;;;;14.95;3.15;;;18.50;99.90;;;;;;5033683;28;20049;-68
2023/05/26 10:27:00;;;;;;;19.23;3.67;;;18.80;99.90;;;;;;5028659;28;20041;-68
2023/05/26 10:29:34;;;;;;;16.33;2.67;;;18.80;99.90;;;;;;5029651;28;20044;-69
2023/05/26 10:32:00;;;;;;;15.18;2.88;;;18.80;99.90;;;;;;5029213;28;20159;-69
2023/05/26 10:34:42;;;;;;;16.50;3.00;;;18.80;99.90;;;;;;5015224;28;20124;-68
2023/05/26 10:37:16;;;;;;;17.27;3.28;;;19.20;99.90;;;;;;5031504;28;20526;-68
2023/05/26 10:39:42;;;;;;;15.02;3.08;;;19.30;99.90;;;;;;5011006;28;20045;-68
2023/05/26 10:42:20;;;;;;;14.05;3.20;;;19.40;99.90;;;;;;5013760;28;20110;-68
2023/05/26 10:44:52;;;;;;;17.85;3.40;;;19.30;99.90;;;;;;5064692;28;20071;-68
2023/05/26 10:47:20;;;;;;;13.45;2.63;;;19.40;99.90;;;;;;5010731;28;20449;-67
2023/05/26 10:49:56;;;;;;;17.90;3.92;;;19.50;99.90;;;;;;5005230;28;20116;-67
2023/05/26 10:52:22;;;;;;;14.15;2.88;;;19.30;99.90;;;;;;5065046;28;20079;-66
2023/05/26 10:54:50;;;;;;;19.25;3.33;;;19.60;99.90;;;;;;4990863;28;20076;-66
2023/05/26 10:57:31;;;;;;;16.15;3.58;;;19.60;99.90;;;;;;5022628;28;20045;-66
2023/05/26 10:59:57;;;;;;;19.52;3.60;;;19.70;99.90;;;;;;5035482;28;20075;-67
2023/05/26 11:02:23;;;;;;;15.27;3.63;;;19.60;99.90;;;;;;5023746;28;20041;-66
2023/05/26 11:04:50;;;;;;;15.38;3.53;;;19.70;99.90;;;;;;5023567;28;20081;-67
2023/05/26 11:07:23;;;;;;;16.77;3.42;;;19.40;99.90;;;;;;5022651;28;20041;-67
2023/05/26 11:10:05;;;;;;;17.60;3.47;;;19.60;99.90;;;;;;5062632;28;20411;-67
2023/05/26 11:12:49;;;;;;;16.65;3.38;;;19.80;99.90;;;;;;5007353;28;20084;-66
2023/05/26 11:15:28;;;;;;;15.15;3.72;;;19.60;99.90;;;;;;5008043;28;20050;-67
2023/05/26 11:18:06;;;;;;;17.48;3.50;;;19.70;99.90;;;;;;5072277;28;20044;-68
2023/05/26 11:20:32;;;;;;;18.67;4.55;;;19.80;99.90;;;;;;5035121;28;20049;-67
2023/05/26 11:22:58;;;;;;;15.70;3.60;;;19.80;99.90;;;;;;5026927;28;20041;-67
2023/05/26 11:25:27;;;;;;;18.60;3.65;;;20.00;99.90;;;;;;5009632;28;20478;-67
2023/05/26 11:27:53;;;;;;;20.52;3.63;;;20.30;99.90;;;;;;5010296;28;20527;-66
2023/05/26 11:30:19;;;;;;;14.70;3.53;;;20.40;99.90;;;;;;5026560;28;20135;-68
2023/05/26 11:32:51;;;;;;;19.63;3.72;;;20.70;99.90;;;;;;5059963;28;20206;-67
2023/05/26 11:35:27;;;;;;;18.85;3.30;;;20.40;99.90;;;;;;5010445;28;20045;-67
2023/05/26 11:37:55;;;;;;;18.50;3.95;;;20.30;99.90;;;;;;5038540;28;20048;-67
2023/05/26 11:40:21;;;;;;;20.17;3.75;;;20.00;99.90;;;;;;5059397;28;20072;-68
2023/05/26 11:42:52;;;;;;;18.88;3.55;;;20.10;99.90;;;;;;5025428;28;20045;-67
2023/05/26 11:45:18;;;;;;;16.73;3.30;;;20.30;99.90;;;;;;5024292;28;20098;-68
2023/05/26 11:47:44;;;;;;;16.33;3.00;;;20.40;99.90;;;;;;5025165;28;20053;-67
2023/05/26 11:50:11;;;;;;;18.17;3.53;;;20.00;99.90;;;;;;5026353;28;20080;-68
2023/05/26 11:52:47;;;;;;;15.80;3.00;;;20.00;99.90;;;;;;5060126;28;20058;-67
2023/05/26 11:55:14;;;;;;;17.52;3.55;;;19.60;99.90;;;;;;5025444;28;20077;-68
2023/05/26 11:57:42;;;;;;;16.23;3.45;;;19.90;99.90;;;;;;5058395;28;20041;-67
2023/05/26 12:00:19;;;;;;;14.32;2.95;;;20.10;99.90;;;;;;5010260;28;20064;-66
2023/05/26 12:02:46;;;;;;;16.30;3.55;;;20.30;99.90;;;;;;5057558;28;20060;-66
2023/05/26 12:05:28;;;;;;;16.15;3.30;;;20.10;99.90;;;;;;5025122;28;20111;-66
2023/05/26 12:08:03;;;;;;;16.42;4.15;;;20.50;99.90;;;;;;5035942;28;20045;-66
2023/05/26 12:10:32;;;;;;;19.27;3.78;;;20.50;99.90;;;;;;5063519;28;20033;-69
2023/05/26 12:12:58;;;;;;;23.77;5.03;;;20.40;99.90;;;;;;5056097;28;20049;-68
2023/05/26 12:15:25;;;;;;;18.20;3.78;;;20.60;99.90;;;;;;5040003;28;20405;-67
2023/05/26 12:17:51;;;;;;;17.25;3.88;;;20.90;99.90;;;;;;5006515;28;20037;-67
2023/05/26 12:20:20;;;;;;;19.30;4.15;;;21.20;99.90;;;;;;5055878;28;20049;-66
2023/05/26 12:23:02;;;;;;;23.20;4.50;;;21.50;99.90;;;;;;5044443;28;20107;-67
2023/05/26 12:25:29;;;;;;;18.90;4.43;;;21.30;99.90;;;;;;5022916;28;20041;-67
2023/05/26 12:27:55;;;;;;;20.58;4.53;;;21.60;99.90;;;;;;5022306;28;20045;-67
2023/05/26 12:30:24;;;;;;;19.40;3.83;;;21.50;99.90;;;;;;5022408;28;20042;-67
2023/05/26 12:32:50;;;;;;;20.92;4.68;;;21.30;99.90;;;;;;5054018;28;20233;-68
2023/05/26 12:35:16;;;;;;;23.08;4.47;;;21.00;99.90;;;;;;5021524;28;20507;-67
2023/05/26 12:37:43;;;;;;;17.83;3.95;;;20.90;99.90;;;;;;5053498;28;20049;-67
2023/05/26 12:40:09;;;;;;;19.90;4.60;;;20.60;99.90;;;;;;5053414;28;20049;-67